createdAt,value
2024-02-08T00:01:10.962Z,4.13
2024-02-08T00:05:14.113Z,4.50
2024-02-08T00:09:15.880Z,4.10
2024-02-08T00:13:17.575Z,3.70
2024-02-08T00:17:19.267Z,3.10
2024-02-08T00:21:22.457Z,3.17
2024-02-08T00:25:24.313Z,3.03
2024-02-08T00:29:26.260Z,3.43
2024-02-08T00:33:27.950Z,3.90
2024-02-08T00:37:31.168Z,3.90
2024-02-08T00:41:33.971Z,4.30
2024-02-08T00:45:36.111Z,4.17
2024-02-08T00:49:38.170Z,4.67
2024-02-08T00:53:41.271Z,5.00
2024-02-08T00:57:43.014Z,5.23
2024-02-08T01:01:44.732Z,4.30
2024-02-08T01:05:46.499Z,4.80
2024-02-08T01:09:49.510Z,4.87
2024-02-08T01:13:51.431Z,4.80
2024-02-08T01:17:53.450Z,5.13
2024-02-08T01:21:56.246Z,5.20
2024-02-08T01:25:59.376Z,5.63
2024-02-08T01:30:01.373Z,5.50
2024-02-08T01:34:03.493Z,5.43
2024-02-08T01:38:05.248Z,5.50
2024-02-08T01:42:12.725Z,4.87
2024-02-08T01:46:14.487Z,6.00
2024-02-08T01:50:24.283Z,6.43
2024-02-08T01:54:26.724Z,6.53
2024-02-08T01:58:30.765Z,6.43
2024-02-08T02:02:32.516Z,5.73
2024-02-08T02:06:35.420Z,5.70
2024-02-08T02:10:39.139Z,5.87
2024-02-08T02:14:42.720Z,6.53
2024-02-08T02:18:44.319Z,6.00
2024-02-08T02:22:48.542Z,6.60
2024-02-08T02:26:50.273Z,7.40
2024-02-08T02:30:52.947Z,6.70
2024-02-08T02:34:55.134Z,6.53
2024-02-08T02:38:58.210Z,5.47
2024-02-08T02:43:00.113Z,6.70
2024-02-08T02:47:01.755Z,6.80
2024-02-08T02:51:03.890Z,5.90
2024-02-08T02:55:07.838Z,6.43
2024-02-08T02:59:10.516Z,6.30
2024-02-08T03:03:12.312Z,7.10
2024-02-08T03:07:13.957Z,6.47
2024-02-08T03:11:17.181Z,5.90
2024-02-08T03:15:19.862Z,6.77
2024-02-08T03:19:23.654Z,6.60
2024-02-08T03:23:25.985Z,6.53
2024-02-08T03:27:28.881Z,7.07
2024-02-08T03:31:30.657Z,7.70
2024-02-08T03:35:32.310Z,7.77
2024-02-08T03:39:33.958Z,8.37
2024-02-08T03:43:37.214Z,8.00
2024-02-08T03:47:38.999Z,7.60
2024-02-08T03:51:40.722Z,8.37
2024-02-08T03:55:42.731Z,9.27
2024-02-08T03:59:46.679Z,10.03
2024-02-08T04:03:48.281Z,10.17
2024-02-08T04:07:50.290Z,10.87
2024-02-08T04:11:52.039Z,11.57
2024-02-08T04:15:57.465Z,11.60
2024-02-08T04:20:00.941Z,10.97
2024-02-08T04:24:03.649Z,10.80
2024-02-08T04:28:07.512Z,10.03
2024-02-08T04:32:12.184Z,10.23
2024-02-08T04:36:14.984Z,9.83
2024-02-08T04:40:17.684Z,9.70
2024-02-08T04:44:19.361Z,10.00
2024-02-08T04:48:22.484Z,12.23
2024-02-08T04:52:24.777Z,11.13
2024-02-08T04:56:26.759Z,10.83
2024-02-08T05:00:28.560Z,9.97
2024-02-08T05:04:31.697Z,10.60
2024-02-08T05:08:33.412Z,11.17
2024-02-08T05:12:34.966Z,11.70
2024-02-08T05:16:37.668Z,12.93
2024-02-08T05:20:41.177Z,11.33
2024-02-08T05:24:42.940Z,11.43
2024-02-08T05:28:44.730Z,11.67
2024-02-08T05:32:46.543Z,10.90
2024-02-08T05:36:49.628Z,11.63
2024-02-08T05:40:51.442Z,11.83
2024-02-08T05:44:53.963Z,13.27
2024-02-08T05:48:56.657Z,14.20
2024-02-08T05:52:59.995Z,13.63
2024-02-08T05:57:02.404Z,13.40
2024-02-08T06:01:04.901Z,13.97
2024-02-08T06:05:06.973Z,12.73
2024-02-08T06:09:10.494Z,13.87
2024-02-08T06:13:13.465Z,13.53
2024-02-08T06:17:15.486Z,13.33
2024-02-08T06:21:17.130Z,13.87
2024-02-08T06:25:20.365Z,14.53
2024-02-08T06:29:22.213Z,14.40
2024-02-08T06:33:23.938Z,14.40
2024-02-08T06:37:25.786Z,12.97
2024-02-08T06:41:28.834Z,11.97
2024-02-08T06:45:30.728Z,14.00
2024-02-08T06:49:33.550Z,13.37
2024-02-08T06:53:38.525Z,12.37
2024-02-08T06:57:41.968Z,13.67
2024-02-08T07:01:44.388Z,13.83
2024-02-08T07:05:46.071Z,12.70
2024-02-08T07:09:47.893Z,13.67
2024-02-08T07:13:50.988Z,11.17
2024-02-08T07:17:53.247Z,11.80
2024-02-08T07:21:55.583Z,12.53
2024-02-08T07:25:57.559Z,12.40
2024-02-08T07:30:00.577Z,11.53
2024-02-08T07:34:02.508Z,11.43
2024-02-08T07:38:05.946Z,11.07
2024-02-08T07:42:07.816Z,10.63
2024-02-08T07:46:10.842Z,9.17
2024-02-08T07:50:12.756Z,9.03
2024-02-08T07:54:14.567Z,8.57
2024-02-08T07:58:16.269Z,9.60
2024-02-08T08:02:19.323Z,9.20
2024-02-08T08:06:21.052Z,7.87
2024-02-08T08:10:22.834Z,9.63
2024-02-08T08:14:24.837Z,9.00
2024-02-08T08:18:27.892Z,8.17
2024-02-08T08:22:29.653Z,8.30
2024-02-08T08:26:32.378Z,8.70
2024-02-08T08:30:34.392Z,8.80
2024-02-08T08:34:37.637Z,8.47
2024-02-08T08:38:39.436Z,8.27
2024-02-08T08:42:41.769Z,9.37
2024-02-08T08:46:44.591Z,7.63
2024-02-08T08:50:47.691Z,9.13
2024-02-08T08:54:49.251Z,8.67
2024-02-08T08:58:51.549Z,8.90
2024-02-08T09:02:53.396Z,8.57
2024-02-08T09:06:56.435Z,8.83
2024-02-08T09:10:58.324Z,8.70
2024-02-08T09:14:59.937Z,9.47
2024-02-08T09:19:03.122Z,9.70
2024-02-08T09:23:07.037Z,10.23
2024-02-08T09:27:08.637Z,10.70
2024-02-08T09:31:10.366Z,9.83
2024-02-08T09:35:12.348Z,11.03
2024-02-08T09:39:15.524Z,9.30
2024-02-08T09:43:17.245Z,10.60
2024-02-08T09:47:20.376Z,11.17
2024-02-08T09:51:24.480Z,10.30
2024-02-08T09:55:27.963Z,10.43
2024-02-08T09:59:30.168Z,10.17
2024-02-08T10:03:32.067Z,11.17
2024-02-08T10:07:34.113Z,10.47
2024-02-08T10:11:39.310Z,12.40
2024-02-08T10:15:41.197Z,13.23
2024-02-08T10:19:56.402Z,11.43
2024-02-08T10:23:59.034Z,11.90
2024-02-08T10:28:02.060Z,11.37
2024-02-08T10:32:05.646Z,11.83
2024-02-08T10:36:08.840Z,11.37
2024-02-08T10:40:18.221Z,10.43
2024-02-08T10:44:25.894Z,10.43
2024-02-08T10:48:30.532Z,9.27
2024-02-08T10:52:33.784Z,8.80
2024-02-08T10:56:36.553Z,9.23
2024-02-08T11:00:42.147Z,9.10
2024-02-08T11:04:44.824Z,9.17
2024-02-08T11:08:46.605Z,8.30
2024-02-08T11:12:52.231Z,8.13
2024-02-08T11:16:56.157Z,8.10
2024-02-08T11:21:00.030Z,7.73
2024-02-08T11:25:03.536Z,8.30
2024-02-08T11:29:05.765Z,6.23
2024-02-08T11:33:09.243Z,6.30
2024-02-08T11:37:14.681Z,7.63
2024-02-08T11:41:16.758Z,7.47
2024-02-08T11:45:19.437Z,7.23
2024-02-08T11:49:22.584Z,6.17
2024-02-08T11:53:37.122Z,6.50
2024-02-08T11:58:14.991Z,6.97
2024-02-08T12:02:24.992Z,7.40
2024-02-08T12:06:40.522Z,7.00
2024-02-08T12:10:53.054Z,7.20
2024-02-08T12:15:02.624Z,5.93
2024-02-08T12:19:06.452Z,5.40
2024-02-08T12:23:09.508Z,5.50
2024-02-08T12:27:16.924Z,5.20
2024-02-08T12:31:19.900Z,4.60
2024-02-08T12:35:25.856Z,4.27
2024-02-08T12:39:29.384Z,5.17
2024-02-08T12:43:31.591Z,6.50
2024-02-08T12:47:33.426Z,5.10
2024-02-08T12:51:36.877Z,6.20
2024-02-08T12:55:39.948Z,5.70
2024-02-08T12:59:42.919Z,5.07
2024-02-08T13:03:44.619Z,5.43
2024-02-08T13:07:56.656Z,5.43
2024-02-08T13:12:07.663Z,5.40
2024-02-08T13:16:09.400Z,5.87
2024-02-08T13:20:12.012Z,6.10
2024-02-08T13:24:13.792Z,6.10
2024-02-08T13:28:16.879Z,6.07
2024-02-08T13:32:18.452Z,6.13
2024-02-08T13:36:20.131Z,7.10
2024-02-08T13:40:24.633Z,7.20
2024-02-08T13:44:27.807Z,7.23
2024-02-08T13:48:29.820Z,6.80
2024-02-08T13:52:31.524Z,7.57
2024-02-08T13:56:33.253Z,6.97
2024-02-08T14:00:36.677Z,6.50
2024-02-08T14:04:38.519Z,6.60
2024-02-08T14:08:40.141Z,6.73
2024-02-08T14:12:41.674Z,7.07
2024-02-08T14:16:44.613Z,7.23
2024-02-08T14:20:46.663Z,7.30
2024-02-08T14:24:48.237Z,7.80
2024-02-08T14:28:49.931Z,7.40
2024-02-08T14:32:52.994Z,8.43
2024-02-08T14:36:54.622Z,7.50
2024-02-08T14:40:56.627Z,7.63
2024-02-08T14:44:58.321Z,7.30
2024-02-08T14:49:01.603Z,7.67
2024-02-08T14:53:07.104Z,6.60
2024-02-08T14:57:08.854Z,6.20
2024-02-08T15:01:10.697Z,6.83
2024-02-08T15:05:13.700Z,6.67
2024-02-08T15:09:15.373Z,6.30
2024-02-08T15:13:17.012Z,6.33
2024-02-08T15:17:18.727Z,7.80
2024-02-08T15:21:21.692Z,7.13
2024-02-08T15:25:23.365Z,9.37
2024-02-08T15:29:25.020Z,7.53
2024-02-08T15:33:26.973Z,8.10
2024-02-08T15:37:30.501Z,7.03
2024-02-08T15:41:32.255Z,6.40
2024-02-08T15:45:34.183Z,4.57
2024-02-08T15:49:35.890Z,3.93
2024-02-08T15:53:44.741Z,4.33
2024-02-08T15:57:46.781Z,3.60
2024-02-08T16:01:49.837Z,2.87
2024-02-08T16:05:51.592Z,3.10
2024-02-08T16:09:54.589Z,2.37
2024-02-08T16:13:56.355Z,2.37
2024-02-08T16:17:58.515Z,2.50
2024-02-08T16:22:00.315Z,3.30
2024-02-08T16:26:03.308Z,2.67
2024-02-08T16:30:06.463Z,2.87
2024-02-08T16:34:08.209Z,2.77
2024-02-08T16:38:10.145Z,2.40
2024-02-08T16:42:13.335Z,2.63
2024-02-08T16:46:15.108Z,2.60
2024-02-08T16:50:16.804Z,2.77
2024-02-08T16:54:18.490Z,2.30
2024-02-08T16:58:21.819Z,2.50
2024-02-08T17:02:23.695Z,2.40
2024-02-08T17:06:25.393Z,2.00
2024-02-08T17:10:27.427Z,2.33
2024-02-08T17:14:30.441Z,1.93
2024-02-08T17:18:32.334Z,1.53
2024-02-08T17:22:34.208Z,1.60
2024-02-08T17:26:36.191Z,1.93
2024-02-08T17:30:39.102Z,1.60
2024-02-08T17:34:40.961Z,1.60
2024-02-08T17:38:43.059Z,1.30
2024-02-08T17:42:44.964Z,1.40
2024-02-08T17:46:48.586Z,1.33
2024-02-08T17:50:50.539Z,1.50
2024-02-08T17:54:52.194Z,1.20
2024-02-08T17:58:54.181Z,1.10
2024-02-08T18:02:57.050Z,1.00
2024-02-08T18:06:59.197Z,1.33
2024-02-08T18:11:01.078Z,1.20
2024-02-08T18:15:03.607Z,0.90
2024-02-08T18:19:06.689Z,1.00
2024-02-08T18:23:08.442Z,1.00
2024-02-08T18:27:10.104Z,0.90
2024-02-08T18:31:11.703Z,0.70
2024-02-08T18:35:15.356Z,0.97
2024-02-08T18:39:17.051Z,0.90
2024-02-08T18:43:18.883Z,0.93
2024-02-08T18:47:20.789Z,1.00
2024-02-08T18:51:23.745Z,1.20
2024-02-08T18:55:25.463Z,1.00
2024-02-08T18:59:27.096Z,1.00
2024-02-08T19:03:29.710Z,0.93
2024-02-08T19:07:33.143Z,0.90
2024-02-08T19:11:34.869Z,1.07
2024-02-08T19:15:36.803Z,1.10
2024-02-08T19:19:38.626Z,1.00
2024-02-08T19:23:42.617Z,0.90
2024-02-08T19:27:44.209Z,1.03
2024-02-08T19:31:45.957Z,1.20
2024-02-08T19:35:47.756Z,1.10
2024-02-08T19:39:50.890Z,1.43
2024-02-08T19:43:52.602Z,1.37
2024-02-08T19:47:54.319Z,1.27
2024-02-08T19:51:56.198Z,1.23
2024-02-08T19:55:59.554Z,1.70
2024-02-08T20:00:01.233Z,1.27
2024-02-08T20:04:03.392Z,1.40
2024-02-08T20:08:05.688Z,1.37
2024-02-08T20:12:09.348Z,1.30
2024-02-08T20:16:11.102Z,1.37
2024-02-08T20:20:13.371Z,1.40
2024-02-08T20:24:16.276Z,1.37
2024-02-08T20:28:19.353Z,1.50
2024-02-08T20:32:21.513Z,1.90
2024-02-08T20:36:23.652Z,1.40
2024-02-08T20:40:25.691Z,1.30
2024-02-08T20:44:28.862Z,1.77
2024-02-08T20:48:30.617Z,2.07
2024-02-08T20:52:33.095Z,1.83
2024-02-08T20:56:34.738Z,2.00
2024-02-08T21:00:39.400Z,2.00
2024-02-08T21:04:42.304Z,2.10
2024-02-08T21:08:44.164Z,2.37
2024-02-08T21:12:45.893Z,2.03
2024-02-08T21:16:49.111Z,2.07
2024-02-08T21:20:50.979Z,1.93
2024-02-08T21:24:52.886Z,2.33
2024-02-08T21:28:54.855Z,2.20
2024-02-08T21:32:57.848Z,2.70
2024-02-08T21:36:59.521Z,2.53
2024-02-08T21:41:03.261Z,3.20
2024-02-08T21:45:07.159Z,2.87
2024-02-08T21:49:10.693Z,2.90
2024-02-08T21:53:12.551Z,2.67
2024-02-08T21:57:14.440Z,2.70
2024-02-08T22:01:38.389Z,3.00
2024-02-08T22:05:42.718Z,2.60
2024-02-08T22:09:46.712Z,2.97
2024-02-08T22:13:48.581Z,2.83
2024-02-08T22:17:51.774Z,2.80
2024-02-08T22:21:54.910Z,2.60
2024-02-08T22:25:56.904Z,2.90
2024-02-08T22:29:58.999Z,3.20
2024-02-08T22:34:00.766Z,3.13
2024-02-08T22:38:04.265Z,3.07
2024-02-08T22:42:06.128Z,2.80
2024-02-08T22:46:08.186Z,3.10
2024-02-08T22:50:11.218Z,3.33
2024-02-08T22:54:16.925Z,3.33
2024-02-08T22:58:22.725Z,4.00
2024-02-08T23:02:25.934Z,3.40
2024-02-08T23:06:27.803Z,4.03
2024-02-08T23:10:30.885Z,4.20
2024-02-08T23:14:32.894Z,3.67
2024-02-08T23:18:34.909Z,3.70
2024-02-08T23:22:36.859Z,3.60
2024-02-08T23:26:39.984Z,3.70
2024-02-08T23:30:41.672Z,3.40
2024-02-08T23:34:43.380Z,3.37
2024-02-08T23:38:45.015Z,3.87
2024-02-08T23:42:49.039Z,3.93
2024-02-08T23:46:50.773Z,3.90
2024-02-08T23:50:52.406Z,3.50
2024-02-08T23:54:54.071Z,4.17
2024-02-08T23:58:57.063Z,3.43
